Flight Track Log - Related Links

Times and Time Zones

All times are in EDT time to prevent confusion due to time zone crossing. See the DAL2241 flight status page for this flight to view local times or setup timezone preferences in your user account.

Time Position Orientation Groundspeed Altitude Reporting Facility
EDT Latitude Longitude Course Direction KTS MPH feet Rate Location/Type
Fri 05:14:24 PM 40.7647 -111.9964 189° South 186 214 5,300  Level Salt Lake Center
Fri 05:14:45 PM 40.7531 -111.9925 166° South 181 208 5,800 1,667 Climbing Salt Lake Center
Fri 05:15:00 PM 40.7292 -111.9914 178° South 204 235 6,300 2,323 Climbing Salt Lake Center
Fri 05:15:47 PM 40.6864 -111.9831 172° South 248 285 8,200 2,955 Climbing Salt Lake Center
Fri 05:16:07 PM 40.6544 -111.9831 180° South 252 290 9,600 3,148 Climbing Salt Lake Center
Fri 05:16:48 PM 40.6161 -111.9736 169° South 255 293 11,400 2,361 Climbing Salt Lake Center
Fri 05:17:00 PM 40.4449 -111.9483 166° South  Level FlightAware Approximate
Fri 05:17:08 PM 40.5789 -111.9717 178° South 266 306 12,000  Level Salt Lake Center
Fri 05:17:50 PM 40.5317 -111.9619 171° South 314 361 12,500 984 Climbing Salt Lake Center
Fri 05:18:00 PM 40.3333 -111.9333 180° South  Level FlightAware Approximate
Fri 05:18:09 PM 40.4819 -111.9594 178° South 363 418 13,000  Level Salt Lake Center
Fri 05:18:52 PM 40.4056 -111.9489 174° South 382 440 14,600 2,423 Climbing Salt Lake Center
Fri 05:19:00 PM 40.2209 -111.9425 189° South  Level FlightAware Approximate
Fri 05:19:53 PM 40.2933 -111.9408 177° South 402 463 17,200  Level Salt Lake Center
Fri 05:20:55 PM 40.1778 -111.9542 185° South 418 481 18,900 1,790 Climbing Salt Lake Center
Fri 05:21:57 PM 40.0569 -111.9708 186° South 435 501 20,900 1,839 Climbing Salt Lake Center
Fri 05:22:59 PM 39.9336 -111.9892 187° South 446 513 22,700 1,756 Climbing Salt Lake Center
Fri 05:24:00 PM 39.8069 -112.0075 186° South 455 524 24,500 1,659 Climbing Salt Lake Center
Fri 05:25:02 PM 39.6814 -112.0275 187° South 454 522 26,100 1,452 Climbing Salt Lake Center
Fri 05:26:04 PM 39.5225 -112.0500 186° South 472 543 27,500 1,366 Climbing Salt Lake Center
Fri 05:27:05 PM 39.3861 -112.0703 187° South 488 562 28,900 1,452 Climbing Salt Lake Center
Fri 05:28:08 PM 39.2519 -112.0889 186° South 488 562 30,500 1,548 Climbing Salt Lake Center
Fri 05:29:09 PM 39.1078 -112.1272 192° South 481 554 32,100 1,463 Climbing Salt Lake Center
Fri 05:30:11 PM 38.9997 -112.2061 210° Southwest 451 519 33,500 1,366 Climbing Salt Lake Center
Fri 05:31:12 PM 38.8908 -112.2833 209° Southwest 448 516 34,900 1,268 Climbing Salt Lake Center
Fri 05:32:14 PM 38.7850 -112.3608 210° Southwest 442 509 36,100 919 Climbing Salt Lake Center
Fri 05:33:16 PM 38.6789 -112.4381 210° Southwest 439 505 36,800 581 Climbing Salt Lake Center
Fri 05:34:18 PM 38.5689 -112.5161 209° Southwest 451 519 37,300 537 Climbing Salt Lake Center
Fri 05:35:19 PM 38.4589 -112.5958 210° Southwest 455 524 37,900 341 Climbing Salt Lake Center
Fri 05:36:21 PM 38.3256 -112.6906 209° Southwest 458 527 38,000 48 Climbing Salt Lake Center
Fri 05:37:23 PM 38.2142 -112.7697 209° Southwest 460 529 38,000  Level Salt Lake Center
Fri 05:38:25 PM 38.1031 -112.8481 209° Southwest 460 529 38,000  Level Salt Lake Center
Fri 05:39:27 PM 37.9919 -112.9272 209° Southwest 460 529 38,000  Level Salt Lake Center
Fri 05:40:28 PM 37.8797 -113.0042 208° Southwest 462 532 38,000  Level Salt Lake Center
Fri 05:41:30 PM 37.7522 -113.1031 212° Southwest 458 527 38,000  Level Salt Lake Center
Fri 05:42:32 PM 37.6594 -113.2006 220° Southwest 442 509 38,000  Level Salt Lake Center
Fri 05:43:34 PM 37.5642 -113.2975 219° Southwest 444 511 38,000  Level Salt Lake Center
Fri 05:44:36 PM 37.4686 -113.3958 219° Southwest 446 513 38,000  Level Salt Lake Center
Fri 05:45:37 PM 37.3736 -113.4914 219° Southwest 440 506 38,000  Level Salt Lake Center
Fri 05:46:10 PM 37.3169 -113.5475 218° Southwest 437 503 38,000  Level Los Angeles Center
Fri 05:47:12 PM 37.2236 -113.6442 220° Southwest 436 502 38,000  Level Los Angeles Center
Fri 05:47:41 PM 37.1653 -113.7019 218° Southwest 440 506 38,000  Level Salt Lake Center
Fri 05:48:43 PM 37.0700 -113.7969 219° Southwest 439 505 38,000  Level Salt Lake Center
Fri 05:49:17 PM 37.0139 -113.8553 220° Southwest 440 506 38,000  Level Los Angeles Center
Fri 05:50:19 PM 36.9231 -113.9458 219° Southwest 444 511 38,000  Level Los Angeles Center
Fri 05:51:21 PM 36.8256 -114.0436 219° Southwest 446 513 38,000  Level Los Angeles Center
Fri 05:52:23 PM 36.7217 -114.1456 218° Southwest 449 517 38,000  Level Los Angeles Center
Fri 05:53:25 PM 36.6111 -114.2575 219° Southwest 447 514 38,000  Level Los Angeles Center
Fri 05:54:27 PM 36.5161 -114.3536 219° Southwest 441 507 38,000  Level Los Angeles Center
Fri 05:55:29 PM 36.4206 -114.4458 218° Southwest 435 501 38,000  Level Los Angeles Center
Fri 05:56:31 PM 36.3247 -114.5400 218° Southwest 436 502 38,000  Level Los Angeles Center
Fri 05:57:33 PM 36.2294 -114.6350 219° Southwest 436 502 38,000  Level Los Angeles Center
Fri 05:58:35 PM 36.1325 -114.7294 218° Southwest 439 505 38,000  Level Los Angeles Center
Fri 05:59:38 PM 36.0347 -114.8244 218° Southwest 442 509 38,000  Level Los Angeles Center
Fri 06:00:40 PM 35.9303 -114.9486 224° Southwest 433 498 38,000  Level Los Angeles Center
Fri 06:01:42 PM 35.8503 -115.0600 228° Southwest 432 497 38,000  Level Los Angeles Center
Fri 06:02:44 PM 35.7681 -115.1708 228° Southwest 434 499 38,000  Level Los Angeles Center
Fri 06:03:46 PM 35.6858 -115.2833 228° Southwest 439 505 38,000  Level Los Angeles Center
Fri 06:04:48 PM 35.6056 -115.3931 228° Southwest 431 496 38,000  Level Los Angeles Center
Fri 06:05:50 PM 35.5236 -115.5036 228° Southwest 433 498 38,000  Level Los Angeles Center
Fri 06:06:52 PM 35.4383 -115.6178 228° Southwest 434 499 38,000  Level Los Angeles Center
Fri 06:07:54 PM 35.3558 -115.7256 227° Southwest 433 498 38,000 -194 Level Los Angeles Center
Fri 06:08:56 PM 35.2700 -115.8292 225° Southwest 433 498 37,600 -672 Descending Los Angeles Center
Fri 06:09:59 PM 35.1792 -115.9303 222° Southwest 438 504 36,600 -1,008 Descending Los Angeles Center
Fri 06:11:01 PM 35.0692 -116.0544 223° Southwest 446 513 35,500 -1,016 Descending Los Angeles Center
Fri 06:12:03 PM 34.9758 -116.1550 221° Southwest 447 514 34,500 -919 Descending Los Angeles Center
Fri 06:13:05 PM 34.8853 -116.2575 223° Southwest 445 512 33,600 -919 Descending Los Angeles Center
Fri 06:14:07 PM 34.7922 -116.3597 222° Southwest 448 516 32,600 -919 Descending Los Angeles Center
Fri 06:15:09 PM 34.6986 -116.4644 223° Southwest 454 522 31,700 -919 Descending Los Angeles Center
Fri 06:16:11 PM 34.6031 -116.5686 222° Southwest 459 528 30,700 -1,887 Descending Los Angeles Center
Fri 06:17:13 PM 34.4894 -116.6919 222° Southwest 455 524 27,800 -2,903 Descending Los Angeles Center
Fri 06:18:15 PM 34.3944 -116.7953 222° Southwest 457 526 24,700 -2,806 Descending Los Angeles Center
Fri 06:19:17 PM 34.3028 -116.8956 222° Southwest 445 512 22,000 -2,544 Descending Los Angeles Center
Fri 06:20:20 PM 34.2131 -116.9917 222° Southwest 432 497 19,400 -1,920 Descending Los Angeles Center
Fri 06:21:22 PM 34.1289 -117.0833 222° Southwest 411 473 18,000 -933 Descending Los Angeles Center
Fri 06:21:50 PM 34.1000 -117.1500 242° Southwest 346 398 18,000 -742 Level Southern California TRACON
Fri 06:22:51 PM 34.0500 -117.2333 234° Southwest 314 361 16,900 -1,286 Descending Southern California TRACON
Fri 06:23:56 PM 34.0333 -117.3500 260° West 298 343 15,300 -1,500 Descending Southern California TRACON
Fri 06:24:51 PM 34.0333 -117.4333 270° West 295 339 13,900 -1,461 Descending Southern California TRACON
Fri 06:25:51 PM 34.0167 -117.5333 259° West 288 331 12,500 -1,400 Descending Southern California TRACON
Fri 06:26:51 PM 34.0167 -117.6333 270° West 357 411 11,100 -1,524 Descending Southern California TRACON
Fri 06:27:57 PM 34.0000 -117.7333 259° West 281 323 9,300 -1,476 Descending Southern California TRACON
Fri 06:28:57 PM 34.0000 -117.8333 270° West 288 331 8,000 -1,240 Descending Southern California TRACON
Fri 06:29:58 PM 33.9833 -117.9333 259° West 291 335 6,800 -1,190 Descending Southern California TRACON
Fri 06:30:58 PM 33.9667 -118.0167 256° West 270 311 5,600 -1,050 Descending Southern California TRACON
Fri 06:31:58 PM 33.9667 -118.1000 270° West 228 262 4,700 -1,009 Descending Southern California TRACON
Fri 06:32:45 PM 33.9611 -118.1558 263° West 229 264 3,800 -1,149 Descending Los Angeles Center

Login

Don't have an account? Register now (free) for customized features, flight alerts, and more!